createdAt,value
2018-07-02T00:02:06.719Z,3.78
2018-07-02T00:04:34.307Z,3.78
2018-07-02T00:07:11.747Z,3.73
2018-07-02T00:09:39.295Z,3.69
2018-07-02T00:12:06.821Z,3.63
2018-07-02T00:14:34.362Z,3.57
2018-07-02T00:17:01.887Z,3.54
2018-07-02T00:19:29.479Z,3.48
2018-07-02T00:21:57.007Z,3.47
2018-07-02T00:24:24.530Z,3.43
2018-07-02T00:26:52.703Z,3.40
2018-07-02T00:29:20.231Z,3.36
2018-07-02T00:31:47.808Z,3.32
2018-07-02T00:34:15.295Z,3.28
2018-07-02T00:36:42.843Z,3.22
2018-07-02T00:39:12.050Z,3.14
2018-07-02T00:41:40.123Z,3.09
2018-07-02T00:44:07.665Z,3.06
2018-07-02T00:46:35.181Z,3.06
2018-07-02T00:49:02.754Z,3.02
2018-07-02T00:51:30.234Z,3.00
2018-07-02T00:53:57.763Z,2.97
2018-07-02T00:56:25.310Z,2.95
2018-07-02T00:58:52.964Z,2.92
2018-07-02T01:01:20.847Z,2.93
2018-07-02T01:03:48.972Z,2.95
2018-07-02T01:06:16.787Z,2.96
2018-07-02T01:08:44.302Z,2.94
2018-07-02T01:11:11.891Z,2.94
2018-07-02T01:13:39.387Z,2.93
2018-07-02T01:16:07.038Z,2.93
2018-07-02T01:18:34.583Z,2.91
2018-07-02T01:21:02.099Z,2.89
2018-07-02T01:23:29.678Z,2.90
2018-07-02T01:25:57.218Z,2.91
2018-07-02T01:28:24.743Z,2.93
2018-07-02T01:30:52.278Z,2.93
2018-07-02T01:33:19.875Z,2.95
2018-07-02T01:35:47.436Z,2.99
2018-07-02T01:38:14.947Z,3.01
2018-07-02T01:40:42.473Z,3.03
2018-07-02T01:43:10.015Z,3.04
2018-07-02T01:45:37.545Z,3.06
2018-07-02T01:48:05.113Z,3.11
2018-07-02T01:50:32.622Z,3.13
2018-07-02T01:53:00.217Z,3.15
2018-07-02T01:55:27.782Z,3.20
2018-07-02T01:57:55.294Z,3.22
2018-07-02T02:00:22.834Z,3.26
2018-07-02T02:02:50.482Z,3.31
2018-07-02T02:05:18.007Z,3.35
2018-07-02T02:07:45.522Z,3.39
2018-07-02T02:10:13.037Z,3.44
2018-07-02T02:12:40.549Z,3.48
2018-07-02T02:15:08.499Z,3.55
2018-07-02T02:17:36.047Z,3.61
2018-07-02T02:20:03.955Z,3.67
2018-07-02T02:22:31.468Z,3.74
2018-07-02T02:24:59.003Z,3.81
2018-07-02T02:27:26.535Z,3.88
2018-07-02T02:29:54.079Z,3.96
2018-07-02T02:32:21.627Z,4.03
2018-07-02T02:34:49.179Z,4.08
2018-07-02T02:37:16.762Z,4.15
2018-07-02T02:39:44.271Z,4.26
2018-07-02T02:42:11.810Z,4.34
2018-07-02T02:44:39.331Z,4.42
2018-07-02T02:47:06.873Z,4.51
2018-07-02T02:49:34.414Z,4.60
2018-07-02T02:52:01.943Z,4.70
2018-07-02T02:54:29.446Z,4.81
2018-07-02T02:56:56.980Z,4.94
2018-07-02T02:59:24.477Z,5.04
2018-07-02T03:01:52.003Z,5.15
2018-07-02T03:04:19.566Z,5.28
2018-07-02T03:06:47.083Z,5.42
2018-07-02T03:09:14.663Z,5.59
2018-07-02T03:11:42.178Z,5.76
2018-07-02T03:14:09.687Z,5.94
2018-07-02T03:16:37.269Z,6.13
2018-07-02T03:19:05.159Z,6.36
2018-07-02T03:21:32.703Z,6.64
2018-07-02T03:24:00.269Z,6.94
2018-07-02T03:26:27.799Z,7.25
2018-07-02T03:28:55.346Z,7.60
2018-07-02T03:31:22.903Z,7.93
2018-07-02T03:33:50.406Z,8.30
2018-07-02T03:36:17.933Z,8.67
2018-07-02T03:38:45.467Z,9.09
2018-07-02T03:41:12.998Z,9.49
2018-07-02T03:43:40.544Z,9.94
2018-07-02T03:46:08.066Z,10.38
2018-07-02T03:48:35.622Z,10.76
2018-07-02T03:51:03.402Z,11.16
2018-07-02T03:53:30.979Z,11.54
2018-07-02T03:55:58.546Z,11.96
2018-07-02T03:58:26.239Z,12.35
2018-07-02T04:00:54.147Z,12.74
2018-07-02T04:03:21.756Z,13.16
2018-07-02T04:05:49.324Z,13.63
2018-07-02T04:08:16.843Z,13.93
2018-07-02T04:10:44.382Z,14.25
2018-07-02T04:13:11.971Z,14.65
2018-07-02T04:15:39.507Z,14.94
2018-07-02T04:18:07.022Z,15.18
2018-07-02T04:20:34.562Z,15.53
2018-07-02T04:23:02.096Z,15.68
2018-07-02T04:25:29.604Z,15.91
2018-07-02T04:27:57.129Z,16.15
2018-07-02T04:30:24.651Z,16.36
2018-07-02T04:32:52.166Z,16.55
2018-07-02T04:35:19.679Z,16.93
2018-07-02T04:37:47.239Z,17.18
2018-07-02T04:40:14.798Z,17.28
2018-07-02T04:42:42.359Z,17.22
2018-07-02T04:45:09.942Z,17.42
2018-07-02T04:47:37.455Z,17.57
2018-07-02T04:50:04.997Z,17.74
2018-07-02T04:52:32.537Z,18.02
2018-07-02T04:55:00.065Z,18.21
2018-07-02T04:57:27.782Z,18.43
2018-07-02T04:59:55.354Z,18.62
2018-07-02T05:02:22.895Z,18.85
2018-07-02T05:04:50.388Z,19.09
2018-07-02T05:07:17.878Z,18.95
2018-07-02T05:09:45.511Z,19.18
2018-07-02T05:12:13.033Z,19.73
2018-07-02T05:14:41.394Z,19.95
2018-07-02T05:17:08.898Z,20.07
2018-07-02T05:19:36.390Z,20.23
2018-07-02T05:22:03.905Z,20.42
2018-07-02T05:24:31.412Z,20.79
2018-07-02T05:26:58.954Z,20.91
2018-07-02T05:29:26.439Z,21.17
2018-07-02T05:31:53.914Z,21.07
2018-07-02T05:34:21.467Z,21.24
2018-07-02T05:36:48.947Z,21.25
2018-07-02T05:39:16.534Z,21.47
2018-07-02T05:41:44.040Z,21.62
2018-07-02T05:44:11.587Z,21.61
2018-07-02T05:46:39.103Z,21.70
2018-07-02T05:49:06.622Z,22.02
2018-07-02T05:51:34.109Z,22.24
2018-07-02T05:54:01.663Z,22.21
2018-07-02T05:56:29.210Z,22.82
2018-07-02T05:58:56.769Z,22.99
2018-07-02T06:01:24.267Z,22.60
2018-07-02T06:03:51.758Z,22.69
2018-07-02T06:06:19.339Z,22.78
2018-07-02T06:08:47.104Z,23.02
2018-07-02T06:11:14.587Z,22.95
2018-07-02T06:13:42.133Z,22.95
2018-07-02T06:16:09.697Z,22.89
2018-07-02T06:18:37.212Z,22.99
2018-07-02T06:21:06.727Z,23.09
2018-07-02T06:23:34.287Z,23.40
2018-07-02T06:26:01.801Z,23.90
2018-07-02T06:28:29.311Z,24.12
2018-07-02T06:30:56.843Z,24.48
2018-07-02T06:33:24.354Z,24.61
2018-07-02T06:35:51.865Z,24.42
2018-07-02T06:38:19.399Z,24.56
2018-07-02T06:40:46.903Z,25.02
2018-07-02T06:43:14.468Z,25.19
2018-07-02T06:45:41.975Z,24.72
2018-07-02T06:48:09.525Z,24.99
2018-07-02T06:50:37.059Z,24.82
2018-07-02T06:53:04.720Z,24.28
2018-07-02T06:55:32.363Z,24.31
2018-07-02T06:57:59.862Z,24.66
2018-07-02T07:00:27.404Z,24.43
2018-07-02T07:02:54.935Z,24.04
2018-07-02T07:05:22.458Z,23.78
2018-07-02T07:07:50.028Z,24.29
2018-07-02T07:10:17.617Z,24.60
2018-07-02T07:12:45.153Z,24.00
2018-07-02T07:15:12.698Z,24.24
2018-07-02T07:17:40.247Z,24.86
2018-07-02T07:20:07.767Z,25.32
2018-07-02T07:22:35.257Z,25.52
2018-07-02T07:25:02.810Z,25.36
2018-07-02T07:27:30.477Z,25.07
2018-07-02T07:29:58.091Z,25.13
2018-07-02T07:32:25.629Z,25.39
2018-07-02T07:34:53.135Z,25.47
2018-07-02T07:37:20.713Z,25.85
2018-07-02T07:39:48.254Z,25.25
2018-07-02T07:42:15.779Z,25.67
2018-07-02T07:44:43.371Z,25.70
2018-07-02T07:47:10.867Z,25.19
2018-07-02T07:49:38.375Z,24.85
2018-07-02T07:52:05.932Z,25.48
2018-07-02T07:54:33.458Z,25.28
2018-07-02T07:57:01.018Z,24.69
2018-07-02T07:59:28.547Z,24.61
2018-07-02T08:01:56.081Z,24.56
2018-07-02T08:04:23.611Z,24.89
2018-07-02T08:06:51.151Z,25.05
2018-07-02T08:09:18.690Z,25.60
2018-07-02T08:11:46.274Z,25.89
2018-07-02T08:14:13.818Z,25.76
2018-07-02T08:16:41.401Z,24.95
2018-07-02T08:19:09.080Z,24.66
2018-07-02T08:21:36.567Z,25.30
2018-07-02T08:24:04.100Z,26.32
2018-07-02T08:26:31.650Z,26.10
2018-07-02T08:28:59.164Z,25.54
2018-07-02T08:31:26.693Z,25.16
2018-07-02T08:33:54.235Z,25.08
2018-07-02T08:36:21.741Z,25.31
2018-07-02T08:38:49.282Z,25.70
2018-07-02T08:41:16.816Z,25.57
2018-07-02T08:43:44.363Z,25.06
2018-07-02T08:46:12.023Z,24.66
2018-07-02T08:48:39.622Z,25.11
2018-07-02T08:51:07.132Z,25.09
2018-07-02T08:53:34.765Z,25.16
2018-07-02T08:56:02.343Z,24.92
2018-07-02T08:58:29.904Z,24.69
2018-07-02T09:00:57.463Z,24.74
2018-07-02T09:03:25.055Z,24.40
2018-07-02T09:05:52.605Z,24.43
2018-07-02T09:08:20.149Z,24.55
2018-07-02T09:10:47.769Z,24.48
2018-07-02T09:13:15.388Z,24.50
2018-07-02T09:15:42.946Z,24.72
2018-07-02T09:18:10.544Z,24.62
2018-07-02T09:20:38.140Z,24.13
2018-07-02T09:23:05.751Z,24.17
2018-07-02T09:25:33.342Z,24.39
2018-07-02T09:28:00.918Z,24.24
2018-07-02T09:30:28.468Z,23.89
2018-07-02T09:32:56.096Z,23.73
2018-07-02T09:35:23.687Z,23.80
2018-07-02T09:37:51.287Z,23.96
2018-07-02T09:40:18.866Z,24.05
2018-07-02T09:42:46.451Z,23.91
2018-07-02T09:45:14.120Z,23.81
2018-07-02T09:47:41.744Z,24.02
2018-07-02T09:50:09.695Z,24.40
2018-07-02T09:52:37.234Z,24.75
2018-07-02T09:55:04.880Z,24.75
2018-07-02T09:57:32.463Z,25.18
2018-07-02T10:00:00.174Z,24.81
2018-07-02T10:02:27.724Z,24.81
2018-07-02T10:04:55.328Z,24.63
2018-07-02T10:07:22.960Z,24.70
2018-07-02T10:09:50.559Z,24.95
2018-07-02T10:12:18.267Z,24.59
2018-07-02T10:14:45.858Z,24.47
2018-07-02T10:17:13.468Z,24.04
2018-07-02T10:19:41.072Z,24.58
2018-07-02T10:22:08.693Z,24.90
2018-07-02T10:24:36.374Z,25.19
2018-07-02T10:27:03.949Z,25.84
2018-07-02T10:29:31.489Z,26.15
2018-07-02T10:31:59.380Z,26.37
2018-07-02T10:34:26.922Z,25.94
2018-07-02T10:36:54.491Z,25.41
2018-07-02T10:39:22.089Z,25.77
2018-07-02T10:41:49.647Z,25.67
2018-07-02T10:44:17.246Z,25.95
2018-07-02T10:46:44.779Z,26.04
2018-07-02T10:49:12.406Z,25.90
2018-07-02T10:51:40.012Z,26.02
2018-07-02T10:54:07.618Z,26.27
2018-07-02T10:56:35.172Z,25.86
2018-07-02T10:59:02.820Z,25.56
2018-07-02T11:01:30.388Z,25.93
2018-07-02T11:03:58.000Z,25.75
2018-07-02T11:06:25.581Z,25.59
2018-07-02T11:08:53.184Z,25.44
2018-07-02T11:11:20.773Z,25.15
2018-07-02T11:13:48.351Z,25.34
2018-07-02T11:16:16.676Z,25.38
2018-07-02T11:18:44.215Z,25.30
2018-07-02T11:21:11.913Z,25.06
2018-07-02T11:23:39.497Z,25.62
2018-07-02T11:26:07.096Z,25.79
2018-07-02T11:28:34.760Z,25.82
2018-07-02T11:31:02.317Z,25.54
2018-07-02T11:33:29.969Z,25.54
2018-07-02T11:35:57.541Z,25.84
2018-07-02T11:38:25.126Z,25.92
2018-07-02T11:40:52.731Z,25.73
2018-07-02T11:43:20.327Z,25.36
2018-07-02T11:45:47.953Z,25.15
2018-07-02T11:48:15.539Z,25.72
2018-07-02T11:50:43.111Z,25.84
2018-07-02T11:53:10.763Z,25.37
2018-07-02T11:55:38.722Z,24.60
2018-07-02T11:58:06.315Z,24.72
2018-07-02T12:00:33.917Z,24.79
2018-07-02T12:03:01.477Z,24.60
2018-07-02T12:05:29.047Z,24.80
2018-07-02T12:07:56.624Z,25.08
2018-07-02T12:10:24.168Z,25.09
2018-07-02T12:12:51.732Z,25.24
2018-07-02T12:15:19.319Z,25.35
2018-07-02T12:17:46.904Z,25.40
2018-07-02T12:20:14.500Z,24.97
2018-07-02T12:22:42.048Z,24.92
2018-07-02T12:25:09.630Z,24.59
2018-07-02T12:27:37.272Z,24.33
2018-07-02T12:30:05.022Z,24.69
2018-07-02T12:32:32.715Z,24.50
2018-07-02T12:35:00.434Z,24.11
2018-07-02T12:37:28.031Z,24.13
2018-07-02T12:39:55.681Z,24.25
2018-07-02T12:42:23.327Z,23.97
2018-07-02T12:44:50.918Z,23.62
2018-07-02T12:47:18.560Z,23.55
2018-07-02T12:49:46.318Z,23.29
2018-07-02T12:52:13.953Z,23.34
2018-07-02T12:54:41.569Z,23.20
2018-07-02T12:57:09.167Z,23.18
2018-07-02T12:59:36.787Z,23.47
2018-07-02T13:02:04.414Z,23.24
2018-07-02T13:04:32.025Z,22.93
2018-07-02T13:06:59.656Z,23.39
2018-07-02T13:09:27.231Z,23.40
2018-07-02T13:11:54.762Z,23.30
2018-07-02T13:14:22.349Z,23.34
2018-07-02T13:16:49.869Z,23.78
2018-07-02T13:19:17.535Z,23.75
2018-07-02T13:21:45.189Z,23.15
2018-07-02T13:24:12.916Z,23.31
2018-07-02T13:26:40.456Z,23.47
2018-07-02T13:29:08.042Z,23.73
2018-07-02T13:31:35.632Z,23.79
2018-07-02T13:34:03.254Z,23.91
2018-07-02T13:36:30.874Z,23.58
2018-07-02T13:38:58.447Z,23.56
2018-07-02T13:41:25.991Z,23.52
2018-07-02T13:43:53.548Z,23.77
2018-07-02T13:46:21.192Z,23.49
2018-07-02T13:48:48.712Z,23.32
2018-07-02T13:51:16.328Z,23.38
2018-07-02T13:53:43.900Z,23.07
2018-07-02T13:56:11.474Z,23.17
2018-07-02T13:58:39.082Z,22.98
2018-07-02T14:01:06.660Z,23.13
2018-07-02T14:03:34.431Z,23.34
2018-07-02T14:06:02.040Z,23.30
2018-07-02T14:08:29.643Z,23.34
2018-07-02T14:10:57.219Z,23.26
2018-07-02T14:13:24.841Z,23.20
2018-07-02T14:15:52.434Z,23.10
2018-07-02T14:18:20.263Z,22.97
2018-07-02T14:20:47.963Z,22.73
2018-07-02T14:23:15.535Z,22.90
2018-07-02T14:25:43.178Z,22.68
2018-07-02T14:28:10.831Z,22.60
2018-07-02T14:30:38.372Z,22.52
2018-07-02T14:33:06.066Z,22.55
2018-07-02T14:35:33.608Z,22.71
2018-07-02T14:38:01.247Z,22.60
2018-07-02T14:40:28.898Z,22.54
2018-07-02T14:42:56.545Z,22.31
2018-07-02T14:45:24.386Z,22.01
2018-07-02T14:47:51.771Z,21.96
2018-07-02T14:50:19.329Z,21.80
2018-07-02T14:52:46.926Z,21.73
2018-07-02T14:55:14.532Z,21.74
2018-07-02T14:57:42.152Z,21.71
2018-07-02T15:00:09.741Z,21.77
2018-07-02T15:02:37.483Z,21.71
2018-07-02T15:05:05.352Z,21.56
2018-07-02T15:07:33.007Z,21.44
2018-07-02T15:10:00.660Z,21.37
2018-07-02T15:12:28.226Z,21.20
2018-07-02T15:14:55.853Z,21.08
2018-07-02T15:17:23.432Z,20.91
2018-07-02T15:19:50.991Z,20.75
2018-07-02T15:22:18.681Z,20.75
2018-07-02T15:24:46.276Z,20.71
2018-07-02T15:27:13.908Z,20.56
2018-07-02T15:29:41.534Z,20.52
2018-07-02T15:32:09.892Z,20.42
2018-07-02T15:34:37.508Z,20.39
2018-07-02T15:37:05.476Z,20.33
2018-07-02T15:39:33.058Z,20.24
2018-07-02T15:42:00.678Z,20.11
2018-07-02T15:44:28.292Z,20.01
2018-07-02T15:46:56.023Z,19.99
2018-07-02T15:49:23.622Z,19.93
2018-07-02T15:51:51.486Z,19.87
2018-07-02T15:54:19.134Z,19.84
2018-07-02T15:56:46.707Z,19.84
2018-07-02T15:59:14.370Z,19.81
2018-07-02T16:01:41.983Z,19.79
2018-07-02T16:04:10.247Z,19.73
2018-07-02T16:06:37.852Z,19.70
2018-07-02T16:09:07.984Z,19.64
2018-07-02T16:11:35.604Z,19.57
2018-07-02T16:14:03.163Z,19.58
2018-07-02T16:16:30.785Z,19.52
2018-07-02T16:18:58.445Z,19.49
2018-07-02T16:21:26.262Z,19.49
2018-07-02T16:23:53.862Z,19.49
2018-07-02T16:26:21.541Z,19.45
2018-07-02T16:28:49.167Z,19.40
2018-07-02T16:31:16.769Z,19.43
2018-07-02T16:33:44.393Z,19.38
2018-07-02T16:36:12.014Z,19.32
2018-07-02T16:38:39.665Z,19.30
2018-07-02T16:41:07.245Z,19.25
2018-07-02T16:43:34.803Z,19.19
2018-07-02T16:46:02.403Z,19.19
2018-07-02T16:48:29.943Z,19.18
2018-07-02T16:50:57.532Z,19.21
2018-07-02T16:53:25.604Z,19.19
2018-07-02T16:55:53.231Z,19.21
2018-07-02T16:58:20.874Z,19.17
2018-07-02T17:00:48.519Z,19.24
2018-07-02T17:03:16.139Z,19.20
2018-07-02T17:05:43.727Z,19.22
2018-07-02T17:08:11.319Z,19.18
2018-07-02T17:10:38.907Z,19.16
2018-07-02T17:13:06.451Z,19.19
2018-07-02T17:15:34.072Z,19.19
2018-07-02T17:18:01.640Z,19.20
2018-07-02T17:20:29.230Z,19.14
2018-07-02T17:22:56.812Z,19.16
2018-07-02T17:25:24.448Z,19.13
2018-07-02T17:27:52.111Z,19.10
2018-07-02T17:30:19.679Z,19.04
2018-07-02T17:32:47.244Z,19.01
2018-07-02T17:35:14.885Z,18.98
2018-07-02T17:37:42.482Z,18.99
2018-07-02T17:40:10.088Z,19.06
2018-07-02T17:42:37.807Z,19.10
2018-07-02T17:45:05.756Z,19.10
2018-07-02T17:47:33.502Z,19.13
2018-07-02T17:50:01.135Z,19.07
2018-07-02T17:52:28.699Z,19.04
2018-07-02T17:54:56.514Z,19.01
2018-07-02T17:57:24.110Z,19.03
2018-07-02T17:59:51.681Z,19.03
2018-07-02T18:02:19.239Z,19.03
2018-07-02T18:04:46.817Z,18.99
2018-07-02T18:07:14.448Z,18.92
2018-07-02T18:09:42.142Z,18.88
2018-07-02T18:12:09.735Z,18.95
2018-07-02T18:14:37.299Z,19.08
2018-07-02T18:17:05.071Z,19.03
2018-07-02T18:19:32.643Z,19.01
2018-07-02T18:22:00.563Z,18.95
2018-07-02T18:24:28.088Z,18.96
2018-07-02T18:26:55.663Z,18.91
2018-07-02T18:29:23.222Z,18.90
2018-07-02T18:31:50.774Z,18.84
2018-07-02T18:34:18.276Z,18.81
2018-07-02T18:36:45.796Z,18.85
2018-07-02T18:39:13.347Z,18.80
2018-07-02T18:41:41.122Z,18.67
2018-07-02T18:44:08.776Z,18.74
2018-07-02T18:46:36.536Z,18.70
2018-07-02T18:49:04.361Z,18.63
2018-07-02T18:51:31.974Z,18.61
2018-07-02T18:53:59.499Z,18.58
2018-07-02T18:56:27.205Z,18.56
2018-07-02T18:58:54.781Z,18.53
2018-07-02T19:01:22.492Z,18.47
2018-07-02T19:03:50.035Z,18.48
2018-07-02T19:06:17.566Z,18.52
2018-07-02T19:08:45.088Z,18.51
2018-07-02T19:11:12.620Z,18.49
2018-07-02T19:13:40.130Z,18.48
2018-07-02T19:16:07.660Z,18.46
2018-07-02T19:18:35.307Z,18.42
2018-07-02T19:21:02.828Z,18.36
2018-07-02T19:23:30.361Z,18.31
2018-07-02T19:25:57.891Z,18.27
2018-07-02T19:28:25.627Z,18.26
2018-07-02T19:30:53.179Z,18.29
2018-07-02T19:33:20.713Z,18.32
2018-07-02T19:35:48.260Z,18.27
2018-07-02T19:38:15.784Z,18.26
2018-07-02T19:40:43.710Z,18.27
2018-07-02T19:43:11.212Z,18.27
2018-07-02T19:45:41.356Z,18.26
2018-07-02T19:48:08.899Z,18.25
2018-07-02T19:50:36.399Z,18.27
2018-07-02T19:53:03.936Z,18.24
2018-07-02T19:55:31.443Z,18.20
2018-07-02T19:57:58.988Z,18.17
2018-07-02T20:00:26.544Z,18.12
2018-07-02T20:02:54.130Z,18.08
2018-07-02T20:05:21.620Z,18.01
2018-07-02T20:07:49.166Z,17.98
2018-07-02T20:10:16.680Z,17.96
2018-07-02T20:12:44.195Z,17.93
2018-07-02T20:15:11.704Z,17.88
2018-07-02T20:17:39.255Z,17.83
2018-07-02T20:20:08.186Z,17.80
2018-07-02T20:22:35.809Z,17.77
2018-07-02T20:25:03.366Z,17.70
2018-07-02T20:27:30.883Z,17.65
2018-07-02T20:29:58.416Z,17.59
2018-07-02T20:32:25.980Z,17.50
2018-07-02T20:34:53.588Z,17.45
2018-07-02T20:37:21.338Z,17.41
2018-07-02T20:39:48.907Z,17.36
2018-07-02T20:42:16.447Z,17.28
2018-07-02T20:44:44.040Z,17.23
2018-07-02T20:47:12.240Z,17.17
2018-07-02T20:49:40.829Z,17.11
2018-07-02T20:52:08.422Z,17.03
2018-07-02T20:54:35.954Z,16.95
2018-07-02T20:57:03.531Z,16.89
2018-07-02T20:59:31.128Z,16.82
2018-07-02T21:01:58.691Z,16.73
2018-07-02T21:04:26.229Z,16.66
2018-07-02T21:06:53.779Z,16.59
2018-07-02T21:09:21.384Z,16.55
2018-07-02T21:11:48.953Z,16.52
2018-07-02T21:14:16.543Z,16.42
2018-07-02T21:16:44.159Z,16.39
2018-07-02T21:19:11.696Z,16.30
2018-07-02T21:21:39.280Z,16.25
2018-07-02T21:24:06.911Z,16.22
2018-07-02T21:26:34.502Z,16.14
2018-07-02T21:29:02.039Z,16.07
2018-07-02T21:31:29.620Z,16.01
2018-07-02T21:33:57.153Z,15.95
2018-07-02T21:36:24.711Z,15.93
2018-07-02T21:38:52.276Z,15.88
2018-07-02T21:41:19.824Z,15.84
2018-07-02T21:43:47.418Z,15.80
2018-07-02T21:46:14.967Z,15.75
2018-07-02T21:48:42.474Z,15.69
2018-07-02T21:51:10.006Z,15.64
2018-07-02T21:53:37.546Z,15.59
2018-07-02T21:56:05.176Z,15.56
2018-07-02T21:58:32.785Z,15.51
2018-07-02T22:01:00.321Z,15.45
2018-07-02T22:03:27.910Z,15.41
2018-07-02T22:05:55.415Z,15.37
2018-07-02T22:08:22.940Z,15.35
2018-07-02T22:10:50.543Z,15.34
2018-07-02T22:13:18.072Z,15.31
2018-07-02T22:15:45.575Z,15.30
2018-07-02T22:18:13.095Z,15.26
2018-07-02T22:20:40.605Z,15.20
2018-07-02T22:23:08.137Z,15.17
2018-07-02T22:25:35.945Z,15.12
2018-07-02T22:28:03.527Z,15.10
2018-07-02T22:30:31.060Z,15.08
2018-07-02T22:32:58.569Z,15.10
2018-07-02T22:35:26.104Z,15.06
2018-07-02T22:37:53.621Z,15.01
2018-07-02T22:40:21.187Z,14.98
2018-07-02T22:42:48.691Z,14.95
2018-07-02T22:45:16.298Z,14.91
2018-07-02T22:47:43.828Z,14.89
2018-07-02T22:50:11.403Z,14.86
2018-07-02T22:52:38.907Z,14.82
2018-07-02T22:55:06.479Z,14.80
2018-07-02T22:57:34.907Z,14.79
2018-07-02T23:00:02.431Z,14.78
2018-07-02T23:02:29.966Z,14.77
2018-07-02T23:04:57.499Z,14.76
2018-07-02T23:07:25.035Z,14.72
2018-07-02T23:09:52.699Z,14.70
2018-07-02T23:12:20.200Z,14.67
2018-07-02T23:14:47.716Z,14.64
2018-07-02T23:17:15.235Z,14.63
2018-07-02T23:19:42.799Z,14.64
2018-07-02T23:22:10.339Z,14.62
2018-07-02T23:24:37.869Z,14.59
2018-07-02T23:27:05.491Z,14.58
2018-07-02T23:29:33.060Z,14.60
2018-07-02T23:32:00.543Z,14.57
2018-07-02T23:34:28.094Z,14.52
2018-07-02T23:36:55.589Z,14.45
2018-07-02T23:39:23.098Z,14.43
2018-07-02T23:41:50.605Z,14.41
2018-07-02T23:44:18.106Z,14.37
2018-07-02T23:46:45.595Z,14.33
2018-07-02T23:49:13.074Z,14.30
2018-07-02T23:51:40.647Z,14.28
2018-07-02T23:54:08.150Z,14.27
2018-07-02T23:56:35.691Z,14.27
2018-07-02T23:59:03.255Z,14.25
